Time;durP1;ratioP1;P1;durP2;ratioP2;P2;SDS_P1;SDS_P2;PMS_P1;PMS_P2;Temp;Humidity;BMP_temperature;BMP_pressure;BME280_temperature;BME280_humidity;BME280_pressure;Samples;Min_cycle;Max_cycle;Signal;HPM_P1;HPM_P2
2024/01/09 00:00:24;;;;;;;;;;;-6.20;99.90;;;-7.85;100.00;98739.13;5041001;28;3073;-65
2024/01/09 00:02:51;;;;;;;;;;;-6.20;99.90;;;-7.81;100.00;98730.91;5056302;28;2719;-68
2024/01/09 00:05:18;;;;;;;;;;;-6.20;99.90;;;-7.80;100.00;98735.19;5056679;28;1906;-67
2024/01/09 00:07:45;;;;;;;;;;;-6.20;99.90;;;-7.91;100.00;98738.84;5056748;28;1404;-68
2024/01/09 00:10:12;;;;;;;;;;;-6.20;99.90;;;-7.91;100.00;98737.97;5057941;28;1404;-68
2024/01/09 00:12:38;;;;;;;;;;;-6.30;99.90;;;-7.87;100.00;98743.25;5057803;28;1833;-68
2024/01/09 00:15:07;;;;;;;;;;;-6.20;99.90;;;-7.85;100.00;98740.78;5058772;28;1510;-66
2024/01/09 00:17:34;;;;;;;;;;;-6.20;99.90;;;-7.86;100.00;98750.00;5058829;28;1495;-68
2024/01/09 00:20:01;;;;;;;;;;;-6.20;99.90;;;-7.89;100.00;98741.41;5057031;28;1574;-67
2024/01/09 00:22:28;;;;;;;;;;;-6.30;99.90;;;-7.86;100.00;98747.50;5058771;28;1530;-68
2024/01/09 00:24:55;;;;;;;;;;;-6.30;99.90;;;-7.88;100.00;98749.06;5053154;28;2011;-68
2024/01/09 00:27:24;;;;;;;;;;;-6.20;99.90;;;-7.90;100.00;98749.78;5059360;28;1570;-68
2024/01/09 00:29:51;;;;;;;;;;;-6.30;99.90;;;-7.86;100.00;98744.97;5059877;28;1988;-67
2024/01/09 00:32:18;;;;;;;;;;;-6.20;99.90;;;-7.87;100.00;98744.88;5056728;28;1384;-68
2024/01/09 00:34:45;;;;;;;;;;;-6.30;99.90;;;-7.92;100.00;98751.34;5061533;28;1626;-68
2024/01/09 00:37:12;;;;;;;;;;;-6.30;99.90;;;-7.97;100.00;98750.28;5055828;28;1506;-67
2024/01/09 00:39:38;;;;;;;;;;;-6.30;99.90;;;-7.98;100.00;98739.34;5057345;28;1451;-67
2024/01/09 00:42:06;;;;;;;;;;;-6.30;99.90;;;-7.98;100.00;98746.91;5057853;28;3214;-69
2024/01/09 00:44:33;;;;;;;;;;;-6.30;99.90;;;-7.90;100.00;98743.06;5057740;28;2028;-69
2024/01/09 00:47:00;;;;;;;;;;;-6.30;99.90;;;-7.93;100.00;98747.13;5059847;28;1471;-69
2024/01/09 00:49:27;;;;;;;;;;;-6.30;99.90;;;-7.94;100.00;98743.72;5058170;28;1586;-68
2024/01/09 00:51:54;;;;;;;;;;;-6.30;99.90;;;-7.94;100.00;98748.75;5055171;28;2418;-68
2024/01/09 00:54:21;;;;;;;;;;;-6.30;99.90;;;-7.99;100.00;98753.56;5060116;28;1504;-67
2024/01/09 00:56:48;;;;;;;;;;;-6.40;99.90;;;-7.94;100.00;98751.28;5058776;28;1732;-68
2024/01/09 00:59:15;;;;;;;;;;;-6.40;99.90;;;-8.01;100.00;98746.72;5057678;28;1383;-68
2024/01/09 01:01:42;;;;;;;;;;;-6.40;99.90;;;-7.99;100.00;98740.97;5057693;28;1847;-68
2024/01/09 01:04:09;;;;;;;;;;;-6.40;99.90;;;-8.06;100.00;98756.59;5053299;28;1906;-67
2024/01/09 01:06:43;;;;;;;;;;;-6.40;99.90;;;-8.01;100.00;98752.63;5037931;28;2021;-68
2024/01/09 01:09:10;;;;;;;;;;;-6.40;99.90;;;-8.01;100.00;98736.66;5058337;28;1643;-67
2024/01/09 01:11:37;;;;;;;;;;;-6.40;99.90;;;-7.98;100.00;98744.38;5058369;28;1533;-67
2024/01/09 01:14:04;;;;;;;;;;;-6.30;99.90;;;-8.03;100.00;98744.16;5058706;28;1494;-66
2024/01/09 01:16:31;;;;;;;;;;;-6.40;99.90;;;-8.11;100.00;98747.94;5056943;28;1664;-68
2024/01/09 01:18:58;;;;;;;;;;;-6.40;99.90;;;-8.02;100.00;98750.06;5059211;28;2147;-67
2024/01/09 01:21:25;;;;;;;;;;;-6.40;99.90;;;-7.96;100.00;98754.50;5057973;28;1534;-67
2024/01/09 01:23:51;;;;;;;;;;;-6.30;99.90;;;-8.05;100.00;98749.88;5059163;28;1926;-68
2024/01/09 01:26:18;;;;;;;;;;;-6.40;99.90;;;-8.05;100.00;98750.78;5062481;28;1313;-67
2024/01/09 01:28:46;;;;;;;;;;;-6.50;99.90;;;-7.97;100.00;98750.28;5060197;28;1581;-69
2024/01/09 01:31:16;;;;;;;;;;;-6.30;99.90;;;-8.02;100.00;98755.94;5060129;28;3004;-67
2024/01/09 01:33:43;;;;;;;;;;;-6.40;99.90;;;-8.06;100.00;98756.59;5059043;28;2682;-68
2024/01/09 01:36:16;;;;;;;;;;;-6.50;99.90;;;-8.00;100.00;98748.47;5060011;28;1442;-69
2024/01/09 01:38:43;;;;;;;;;;;-6.40;99.90;;;-8.06;100.00;98740.59;5059964;28;1592;-68
2024/01/09 01:41:10;;;;;;;;;;;-6.50;99.90;;;-8.05;100.00;98747.38;5045072;28;1542;-68
2024/01/09 01:43:37;;;;;;;;;;;-6.50;99.90;;;-8.07;100.00;98747.31;5056645;28;1948;-68
2024/01/09 01:46:05;;;;;;;;;;;-6.40;99.90;;;-8.05;100.00;98744.84;5060623;28;1906;-68
2024/01/09 01:48:33;;;;;;;;;;;-6.40;99.90;;;-8.03;100.00;98746.69;5064179;28;1537;-68
2024/01/09 01:51:01;;;;;;;;;;;-6.40;99.90;;;-8.07;100.00;98746.44;5059773;28;1597;-68
2024/01/09 01:53:29;;;;;;;;;;;-6.40;99.90;;;-8.03;100.00;98748.31;5059210;28;1586;-68
2024/01/09 01:55:56;;;;;;;;;;;-6.50;99.90;;;-8.13;100.00;98747.00;5059083;28;1537;-67
2024/01/09 01:58:27;;;;;;;;;;;-6.50;99.90;;;-8.10;100.00;98743.75;5045613;28;1969;-67
2024/01/09 02:00:54;;;;;;;;;;;-6.50;99.90;;;-8.17;100.00;98751.81;5053392;28;2466;-67
2024/01/09 02:03:21;;;;;;;;;;;-6.50;99.90;;;-8.17;100.00;98754.31;5057717;28;1649;-67
2024/01/09 02:05:48;;;;;;;;;;;-6.50;99.90;;;-8.11;100.00;98745.41;5041539;28;1910;-68
2024/01/09 02:08:18;;;;;;;;;;;-6.50;99.90;;;-8.13;100.00;98749.50;5041900;28;1575;-68
2024/01/09 02:10:45;;;;;;;;;;;-6.50;99.90;;;-8.10;100.00;98743.75;5044300;28;1519;-67
2024/01/09 02:13:12;;;;;;;;;;;-6.40;99.90;;;-8.15;100.00;98747.72;5061575;28;3093;-67
2024/01/09 02:15:39;;;;;;;;;;;-6.50;99.90;;;-8.15;100.00;98746.06;5061149;28;2577;-68
2024/01/09 02:18:06;;;;;;;;;;;-6.60;99.90;;;-8.14;100.00;98742.75;5029417;28;1452;-68
2024/01/09 02:20:33;;;;;;;;;;;-6.60;99.90;;;-8.21;100.00;98744.09;5062906;28;1564;-68
2024/01/09 02:23:00;;;;;;;;;;;-6.60;99.90;;;-8.27;100.00;98738.75;5063136;28;1561;-67
2024/01/09 02:25:27;;;;;;;;;;;-6.50;99.90;;;-8.24;100.00;98738.03;5060972;28;1906;-67
2024/01/09 02:28:14;;;;;;;;;;;-6.60;99.90;;;-8.26;100.00;98737.09;5060860;28;2531;-67
2024/01/09 02:30:42;;;;;;;;;;;-6.60;99.90;;;-8.18;100.00;98742.53;5056254;28;1432;-68
2024/01/09 02:33:11;;;;;;;;;;;-6.60;99.90;;;-8.22;100.00;98738.97;5059014;28;1483;-68
2024/01/09 02:35:39;;;;;;;;;;;-6.60;99.90;;;-8.24;100.00;98738.03;5043080;28;1509;-68
2024/01/09 02:38:06;;;;;;;;;;;-6.60;99.90;;;-8.26;100.00;98737.94;5058168;28;1371;-66
2024/01/09 02:40:33;;;;;;;;;;;-6.60;99.90;;;-8.29;100.00;98737.81;5059615;28;1413;-67
2024/01/09 02:43:00;;;;;;;;;;;-6.60;99.90;;;-8.28;100.00;98731.09;5058459;28;2036;-66
2024/01/09 02:45:26;;;;;;;;;;;-6.70;99.90;;;-8.29;100.00;98724.34;5059892;28;1926;-67
2024/01/09 02:47:53;;;;;;;;;;;-6.70;99.90;;;-8.27;100.00;98735.38;5057843;28;1512;-67
2024/01/09 02:50:20;;;;;;;;;;;-6.70;99.90;;;-8.27;100.00;98735.38;5062214;28;1428;-68
2024/01/09 02:52:47;;;;;;;;;;;-6.70;99.90;;;-8.33;100.00;98733.41;5057765;28;1434;-68
2024/01/09 02:55:14;;;;;;;;;;;-6.70;99.90;;;-8.38;100.00;98723.91;5046432;28;1685;-67
2024/01/09 02:57:41;;;;;;;;;;;-6.70;99.90;;;-8.30;100.00;98732.69;5060228;28;3092;-68
2024/01/09 03:00:08;;;;;;;;;;;-6.70;99.90;;;-8.33;100.00;98730.88;5058036;28;1483;-66
2024/01/09 03:02:36;;;;;;;;;;;-6.70;99.90;;;-8.33;100.00;98735.06;5042626;28;1580;-68
2024/01/09 03:05:04;;;;;;;;;;;-6.70;99.90;;;-8.39;100.00;98725.56;5055980;28;1987;-68
2024/01/09 03:07:32;;;;;;;;;;;-6.70;99.90;;;-8.38;100.00;98722.25;5057607;28;1525;-67
2024/01/09 03:09:59;;;;;;;;;;;-6.70;99.90;;;-8.36;100.00;98719.81;5054489;28;2079;-68
2024/01/09 03:12:25;;;;;;;;;;;-6.80;99.90;;;-8.39;100.00;98723.03;5055596;28;1379;-68
2024/01/09 03:14:52;;;;;;;;;;;-6.70;99.90;;;-8.39;100.00;98724.66;5056531;28;1745;-68
2024/01/09 03:17:19;;;;;;;;;;;-6.70;99.90;;;-8.42;100.00;98727.94;5058723;28;1455;-68
2024/01/09 03:19:46;;;;;;;;;;;-6.70;99.90;;;-8.32;100.00;98724.22;5061332;28;1376;-67
2024/01/09 03:22:13;;;;;;;;;;;-6.70;99.90;;;-8.37;100.00;98720.56;5059568;28;1447;-68
2024/01/09 03:24:40;;;;;;;;;;;-6.70;99.90;;;-8.29;100.00;98731.91;5057669;28;2178;-67
2024/01/09 03:27:06;;;;;;;;;;;-6.70;99.90;;;-8.32;100.00;98726.72;5045600;28;1385;-66
2024/01/09 03:29:33;;;;;;;;;;;-6.70;99.90;;;-8.38;100.00;98734.84;5061476;28;2669;-67
2024/01/09 03:32:00;;;;;;;;;;;-6.70;99.90;;;-8.38;100.00;98729.78;5057826;28;1289;-68
2024/01/09 03:34:27;;;;;;;;;;;-6.70;99.90;;;-8.43;100.00;98733.78;5057108;28;1474;-67
2024/01/09 03:36:54;;;;;;;;;;;-6.70;99.90;;;-8.36;100.00;98729.88;5042161;28;1489;-68
2024/01/09 03:39:20;;;;;;;;;;;-6.70;99.90;;;-8.34;100.00;98733.34;5060390;28;1392;-67
2024/01/09 03:41:47;;;;;;;;;;;-6.70;99.90;;;-8.35;100.00;98731.59;5057294;28;1542;-67
2024/01/09 03:44:14;;;;;;;;;;;-6.70;99.90;;;-8.33;100.00;98730.03;5061069;28;3261;-68
2024/01/09 03:46:41;;;;;;;;;;;-6.70;99.90;;;-8.36;100.00;98728.22;5059441;28;2573;-66
2024/01/09 03:49:09;;;;;;;;;;;-6.70;99.90;;;-8.38;100.00;98727.28;5026870;28;1002;-68
2024/01/09 03:51:36;;;;;;;;;;;-6.70;99.90;;;-8.43;100.00;98727.06;5057042;28;1042;-68
2024/01/09 03:54:02;;;;;;;;;;;-6.70;99.90;;;-8.49;100.00;98729.28;5045692;28;1366;-67
2024/01/09 03:56:29;;;;;;;;;;;-6.80;99.90;;;-8.42;100.00;98735.50;5042130;28;1309;-69
2024/01/09 03:58:57;;;;;;;;;;;-6.80;99.90;;;-8.46;100.00;98728.56;5056081;28;2841;-69
2024/01/09 04:01:23;;;;;;;;;;;-6.80;99.90;;;-8.48;100.00;98730.16;5060653;28;1488;-67
2024/01/09 04:03:50;;;;;;;;;;;-6.80;99.90;;;-8.45;100.00;98733.69;5062997;28;1547;-68
2024/01/09 04:06:17;;;;;;;;;;;-6.80;99.90;;;-8.44;100.00;98727.88;5043080;28;1984;-67
2024/01/09 04:08:44;;;;;;;;;;;-6.80;99.90;;;-8.46;100.00;98723.53;5057833;28;1300;-68
2024/01/09 04:11:11;;;;;;;;;;;-6.80;99.90;;;-8.38;100.00;98722.25;5057088;28;1190;-68
2024/01/09 04:13:38;;;;;;;;;;;-6.80;99.90;;;-8.47;100.00;98721.81;5056723;28;2530;-68
2024/01/09 04:16:09;;;;;;;;;;;-6.80;99.90;;;-8.53;100.00;98714.84;5057821;28;1380;-67
2024/01/09 04:18:36;;;;;;;;;;;-6.80;99.90;;;-8.45;100.00;98722.75;5058516;28;1054;-68
2024/01/09 04:21:04;;;;;;;;;;;-6.80;99.90;;;-8.49;100.00;98723.38;5057637;28;1381;-69
2024/01/09 04:23:31;;;;;;;;;;;-6.80;99.90;;;-8.50;100.00;98717.50;5058143;28;1420;-67
2024/01/09 04:25:58;;;;;;;;;;;-6.90;99.90;;;-8.43;100.00;98718.66;5056688;28;1914;-67
2024/01/09 04:28:24;;;;;;;;;;;-6.80;99.90;;;-8.47;100.00;98716.78;5057065;28;3072;-68
2024/01/09 04:30:51;;;;;;;;;;;-6.80;99.90;;;-8.53;100.00;98714.84;5057891;28;1420;-68
2024/01/09 04:33:18;;;;;;;;;;;-6.80;99.90;;;-8.49;100.00;98726.75;5055187;28;1311;-68
2024/01/09 04:35:45;;;;;;;;;;;-6.80;99.90;;;-8.55;100.00;98723.94;5057175;28;1276;-66
2024/01/09 04:38:12;;;;;;;;;;;-6.90;99.90;;;-8.54;100.00;98720.63;5057210;28;1001;-68
2024/01/09 04:40:39;;;;;;;;;;;-6.90;99.90;;;-8.52;100.00;98720.72;5058019;28;1405;-69
2024/01/09 04:43:06;;;;;;;;;;;-6.90;99.90;;;-8.57;100.00;98723.00;5057218;28;2293;-68
2024/01/09 04:45:33;;;;;;;;;;;-6.90;99.90;;;-8.59;100.00;98727.09;5040168;28;1910;-67
2024/01/09 04:48:01;;;;;;;;;;;-6.90;99.90;;;-8.60;100.00;98730.38;5056111;28;1320;-66
2024/01/09 04:50:28;;;;;;;;;;;-6.90;99.90;;;-8.61;100.00;98725.28;5058376;28;1372;-67
2024/01/09 04:52:55;;;;;;;;;;;-6.90;99.90;;;-8.61;100.00;98727.81;5062010;28;1377;-67
2024/01/09 04:55:22;;;;;;;;;;;-7.00;99.90;;;-8.60;100.00;98725.34;5061298;28;1435;-66
2024/01/09 04:57:49;;;;;;;;;;;-7.00;99.90;;;-8.66;100.00;98730.94;5060571;28;2329;-68
2024/01/09 05:00:19;;;;;;;;;;;-6.90;99.90;;;-8.64;100.00;98720.97;5047894;28;1362;-66
2024/01/09 05:02:46;;;;;;;;;;;-7.00;99.90;;;-8.66;100.00;98730.09;5045882;28;1353;-66
2024/01/09 05:05:14;;;;;;;;;;;-7.00;99.90;;;-8.66;100.00;98728.44;5059742;28;1902;-69
2024/01/09 05:07:41;;;;;;;;;;;-7.00;99.90;;;-8.62;100.00;98726.91;5057478;28;1383;-69
2024/01/09 05:10:08;;;;;;;;;;;-7.00;99.90;;;-8.66;100.00;98725.06;5059523;28;3140;-67
2024/01/09 05:12:34;;;;;;;;;;;-7.00;99.90;;;-8.65;100.00;98731.81;5060467;28;1415;-68
2024/01/09 05:15:01;;;;;;;;;;;-7.00;99.90;;;-8.58;100.00;98735.50;5058221;28;1598;-67
2024/01/09 05:17:28;;;;;;;;;;;-6.90;99.90;;;-8.58;100.00;98733.00;5043848;28;1373;-67
2024/01/09 05:19:56;;;;;;;;;;;-7.00;99.90;;;-8.63;100.00;98733.59;5062589;28;1407;-68
2024/01/09 05:22:26;;;;;;;;;;;-7.00;99.90;;;-8.64;100.00;98731.91;5047332;28;1434;-67
2024/01/09 05:24:53;;;;;;;;;;;-7.00;99.90;;;-8.62;100.00;98737.00;5060816;28;1929;-66
2024/01/09 05:27:20;;;;;;;;;;;-7.00;99.90;;;-8.64;100.00;98733.56;5063413;28;2046;-67
2024/01/09 05:29:47;;;;;;;;;;;-7.00;99.90;;;-8.55;100.00;98735.66;5062316;28;2520;-68
2024/01/09 05:32:13;;;;;;;;;;;-7.00;99.90;;;-8.62;100.00;98737.00;5059879;28;1385;-67
2024/01/09 05:34:40;;;;;;;;;;;-7.00;99.90;;;-8.64;100.00;98741.97;5059482;28;2610;-66
2024/01/09 05:37:07;;;;;;;;;;;-7.00;99.90;;;-8.64;100.00;98741.97;5060417;28;1295;-69
2024/01/09 05:39:34;;;;;;;;;;;-7.00;99.90;;;-8.62;100.00;98742.03;5060901;28;1372;-68
2024/01/09 05:42:02;;;;;;;;;;;-7.00;99.90;;;-8.71;100.00;98736.50;5062104;28;1100;-67
2024/01/09 05:44:29;;;;;;;;;;;-7.00;99.90;;;-8.64;100.00;98747.00;5058433;28;1271;-68
2024/01/09 05:46:56;;;;;;;;;;;-6.90;99.90;;;-8.66;100.00;98738.50;5061584;28;2214;-67
2024/01/09 05:49:22;;;;;;;;;;;-7.00;99.90;;;-8.66;100.00;98755.25;5041993;28;1110;-68
2024/01/09 05:51:52;;;;;;;;;;;-7.00;99.90;;;-8.64;100.00;98746.13;5058356;28;1270;-67
2024/01/09 05:54:19;;;;;;;;;;;-7.00;99.90;;;-8.64;100.00;98739.44;5059282;28;1380;-68
2024/01/09 05:56:46;;;;;;;;;;;-7.00;99.90;;;-8.71;100.00;98742.44;5061458;28;1375;-67
2024/01/09 05:59:12;;;;;;;;;;;-7.00;99.90;;;-8.70;100.00;98735.75;5060764;28;1376;-68
2024/01/09 06:01:39;;;;;;;;;;;-7.00;99.90;;;-8.76;100.00;98725.34;5060672;28;3696;-68
2024/01/09 06:04:06;;;;;;;;;;;-7.10;99.90;;;-8.81;100.00;98725.13;5045359;28;1443;-67
2024/01/09 06:06:33;;;;;;;;;;;-7.10;99.90;;;-8.80;100.00;98733.53;5065333;28;1985;-68
2024/01/09 06:09:00;;;;;;;;;;;-7.10;99.90;;;-8.76;100.00;98733.75;5064799;28;1373;-68
2024/01/09 06:11:27;;;;;;;;;;;-7.10;99.90;;;-8.74;100.00;98734.72;5059243;28;1252;-68
2024/01/09 06:13:55;;;;;;;;;;;-7.10;99.90;;;-8.75;100.00;98740.53;5065688;28;1279;-67
2024/01/09 06:16:23;;;;;;;;;;;-7.10;99.90;;;-8.72;100.00;98745.72;5045116;28;2461;-68
2024/01/09 06:18:50;;;;;;;;;;;-7.00;99.90;;;-8.77;100.00;98729.53;5061203;28;2384;-68
2024/01/09 06:21:17;;;;;;;;;;;-7.00;99.90;;;-8.72;100.00;98745.72;5060017;28;2825;-66
2024/01/09 06:23:47;;;;;;;;;;;-7.00;99.90;;;-8.82;100.00;98746.03;5060475;28;1335;-67
2024/01/09 06:26:14;;;;;;;;;;;-7.10;99.90;;;-8.72;100.00;98748.25;5044185;28;1971;-68
2024/01/09 06:28:42;;;;;;;;;;;-7.10;99.90;;;-8.78;100.00;98752.97;5062096;28;1156;-67
2024/01/09 06:31:09;;;;;;;;;;;-7.10;99.90;;;-8.80;100.00;98749.50;5065193;28;2087;-67
2024/01/09 06:33:36;;;;;;;;;;;-7.10;99.90;;;-8.81;100.00;98750.28;5062967;28;2579;-69
2024/01/09 06:36:03;;;;;;;;;;;-7.10;99.90;;;-8.70;100.00;98749.19;5061774;28;1157;-67
2024/01/09 06:38:30;;;;;;;;;;;-7.10;99.90;;;-8.70;100.00;98750.84;5059282;28;1176;-69
2024/01/09 06:40:58;;;;;;;;;;;-7.10;99.90;;;-8.76;100.00;98750.53;5054447;28;1307;-67
2024/01/09 06:43:25;;;;;;;;;;;-7.10;99.90;;;-8.75;100.00;98750.59;5039314;28;1366;-68
2024/01/09 06:45:51;;;;;;;;;;;-7.10;99.90;;;-8.78;100.00;98749.56;5057590;28;1975;-69
2024/01/09 06:48:18;;;;;;;;;;;-7.10;99.90;;;-8.84;100.00;98753.50;5058267;28;3150;-68
2024/01/09 06:50:46;;;;;;;;;;;-7.20;99.90;;;-8.79;100.00;98756.25;5043057;28;1666;-68
2024/01/09 06:53:12;;;;;;;;;;;-7.20;99.90;;;-8.85;100.00;98756.81;5057141;28;1283;-68
2024/01/09 06:55:39;;;;;;;;;;;-7.20;99.90;;;-8.76;100.00;98748.84;5060254;28;1211;-69
2024/01/09 06:58:06;;;;;;;;;;;-7.10;99.90;;;-8.80;100.00;98752.03;5060119;28;1615;-68
2024/01/09 07:00:34;;;;;;;;;;;-7.10;99.90;;;-8.81;100.00;98754.44;5061744;28;1111;-68
2024/01/09 07:03:01;;;;;;;;;;;-7.20;99.90;;;-8.68;100.00;98752.66;5059750;28;2249;-69
2024/01/09 07:05:27;;;;;;;;;;;-7.10;99.90;;;-8.80;100.00;98748.63;5057044;28;1982;-65
2024/01/09 07:07:54;;;;;;;;;;;-7.20;99.90;;;-8.82;100.00;98747.66;5058685;28;1719;-68
2024/01/09 07:10:21;;;;;;;;;;;-7.10;99.90;;;-8.80;100.00;98747.00;5058672;28;1426;-68
2024/01/09 07:12:48;;;;;;;;;;;-7.10;99.90;;;-8.80;100.00;98751.13;5042957;28;2641;-68
2024/01/09 07:15:15;;;;;;;;;;;-7.20;99.90;;;-8.78;100.00;98750.47;5055469;28;1686;-69
2024/01/09 07:17:46;;;;;;;;;;;-7.20;99.90;;;-8.77;100.00;98753.84;5055847;28;1308;-68
2024/01/09 07:20:14;;;;;;;;;;;-7.10;99.90;;;-8.85;100.00;98754.31;5056942;28;1427;-68
2024/01/09 07:22:41;;;;;;;;;;;-7.20;99.90;;;-8.82;100.00;98758.63;5045340;28;1300;-67
2024/01/09 07:25:14;;;;;;;;;;;-7.20;99.90;;;-8.79;100.00;98758.78;5056567;28;1236;-67
2024/01/09 07:27:41;;;;;;;;;;;-7.20;99.90;;;-8.75;100.00;98757.31;5058069;28;3147;-67
2024/01/09 07:30:08;;;;;;;;;;;-7.10;99.90;;;-8.73;100.00;98765.78;5056109;28;2686;-68
2024/01/09 07:32:35;;;;;;;;;;;-7.10;99.90;;;-8.74;100.00;98769.09;5059069;28;1323;-68
2024/01/09 07:35:03;;;;;;;;;;;-7.10;99.90;;;-8.74;100.00;98767.44;5060429;28;1192;-68
2024/01/09 07:37:30;;;;;;;;;;;-7.10;99.90;;;-8.72;100.00;98762.47;5058205;28;1263;-67
2024/01/09 07:39:57;;;;;;;;;;;-7.10;99.90;;;-8.64;100.00;98764.63;5054221;28;1009;-67
2024/01/09 07:42:24;;;;;;;;;;;-7.00;99.90;;;-8.73;100.00;98758.25;5059566;28;2369;-68
2024/01/09 07:44:50;;;;;;;;;;;-7.10;99.90;;;-8.73;100.00;98758.25;5058776;28;2714;-68
2024/01/09 07:47:17;;;;;;;;;;;-7.10;99.90;;;-8.71;100.00;98760.06;5055545;28;1979;-68
2024/01/09 07:49:44;;;;;;;;;;;-7.10;99.90;;;-8.70;100.00;98764.28;5056197;28;1005;-69
2024/01/09 07:52:14;;;;;;;;;;;-7.10;99.90;;;-8.71;100.00;98766.72;5055823;28;1423;-68
2024/01/09 07:54:41;;;;;;;;;;;-7.10;99.90;;;-8.68;100.00;98762.72;5057840;28;2071;-68
2024/01/09 07:57:08;;;;;;;;;;;-7.00;99.90;;;-8.70;100.00;98769.31;5061147;28;1088;-67
2024/01/09 07:59:48;;;;;;;;;;;-7.10;99.90;;;-8.68;100.00;98765.25;5060989;28;2539;-68
2024/01/09 08:02:15;;;;;;;;;;;-7.00;99.90;;;-8.63;100.00;98762.97;5056656;28;2853;-68
2024/01/09 08:04:42;;;;;;;;;;;-7.00;99.90;;;-8.67;100.00;98766.94;5056616;28;1364;-67
2024/01/09 08:07:09;;;;;;;;;;;-7.10;99.90;;;-8.60;100.00;98772.31;5037668;28;2013;-67
2024/01/09 08:09:36;;;;;;;;;;;-7.00;99.90;;;-8.65;100.00;98767.03;5057364;28;1060;-68
2024/01/09 08:12:03;;;;;;;;;;;-7.00;99.90;;;-8.55;100.00;98764.22;5058020;28;3257;-67
2024/01/09 08:14:30;;;;;;;;;;;-7.00;99.90;;;-8.57;100.00;98763.28;5058040;28;2737;-67
2024/01/09 08:16:58;;;;;;;;;;;-7.00;99.90;;;-8.55;100.00;98761.72;5058191;28;2769;-67
2024/01/09 08:19:25;;;;;;;;;;;-6.90;99.90;;;-8.51;100.00;98760.19;5055424;28;1086;-67
2024/01/09 08:21:52;;;;;;;;;;;-7.00;99.90;;;-8.53;100.00;98757.63;5059386;28;1056;-67
2024/01/09 08:24:19;;;;;;;;;;;-6.90;99.90;;;-8.58;100.00;98761.53;5057666;28;1268;-68
2024/01/09 08:26:49;;;;;;;;;;;-6.90;99.90;;;-8.41;100.00;98757.38;5059763;28;2100;-68
2024/01/09 08:29:16;;;;;;;;;;;-6.90;99.90;;;-8.45;100.00;98758.00;5059640;28;2520;-68
2024/01/09 08:32:01;;;;;;;;;;;-6.90;99.90;;;-8.48;100.00;98762.91;5062493;28;1255;-67
2024/01/09 08:34:28;;;;;;;;;;;-6.90;99.90;;;-8.48;100.00;98766.28;5044027;28;1524;-68
2024/01/09 08:36:55;;;;;;;;;;;-6.90;99.90;;;-8.45;100.00;98763.91;5060351;28;1049;-68
2024/01/09 08:39:40;;;;;;;;;;;-6.80;99.90;;;-8.39;100.00;98772.50;5060620;28;1011;-66
2024/01/09 08:42:06;;;;;;;;;;;-6.80;99.90;;;-8.36;100.00;98766.00;5063399;28;1125;-68
2024/01/09 08:44:34;;;;;;;;;;;-6.80;99.90;;;-8.30;100.00;98771.34;5058226;28;2072;-68
2024/01/09 08:47:00;;;;;;;;;;;-6.70;99.90;;;-8.29;100.00;98769.69;5061418;28;1914;-68
2024/01/09 08:49:27;;;;;;;;;;;-6.70;99.90;;;-8.18;100.00;98765.19;5062551;28;1780;-67
2024/01/09 08:51:55;;;;;;;;;;;-6.70;99.90;;;-8.23;100.00;98765.84;5063862;28;1073;-67
2024/01/09 08:54:22;;;;;;;;;;;-6.70;99.90;;;-8.12;100.00;98766.34;5047052;28;1474;-67
2024/01/09 08:56:49;;;;;;;;;;;-6.60;99.90;;;-8.10;100.00;98763.91;5062630;28;1009;-69
2024/01/09 08:59:15;;;;;;;;;;;-6.60;99.90;;;-8.05;100.00;98765.00;5048639;28;3245;-68
2024/01/09 09:01:42;;;;;;;;;;;-6.60;99.90;;;-8.05;100.00;98758.31;5045535;28;1219;-67
2024/01/09 09:04:09;;;;;;;;;;;-6.60;99.90;;;-7.94;100.00;98753.78;5064877;28;1264;-67
2024/01/09 09:06:36;;;;;;;;;;;-6.50;99.90;;;-7.86;100.00;98755.03;5061950;28;1931;-68
2024/01/09 09:09:04;;;;;;;;;;;-6.40;99.90;;;-7.83;100.00;98747.63;5056384;28;1355;-68
2024/01/09 09:11:32;;;;;;;;;;;-6.40;99.90;;;-7.75;100.00;98752.16;5063229;28;1269;-69
2024/01/09 09:13:59;;;;;;;;;;;-6.20;99.90;;;-7.69;100.00;98744.91;5058890;28;2040;-67
2024/01/09 09:16:29;;;;;;;;;;;-6.20;99.90;;;-7.62;100.00;98747.81;5061338;28;2556;-68
2024/01/09 09:18:56;;;;;;;;;;;-6.10;99.90;;;-7.52;100.00;98754.16;5062092;28;1243;-69
2024/01/09 09:21:23;;;;;;;;;;;-6.10;99.90;;;-7.45;100.00;98750.25;5060321;28;1103;-68
2024/01/09 09:23:50;;;;;;;;;;;-6.00;99.90;;;-7.42;100.00;98756.28;5057449;28;1339;-69
2024/01/09 09:26:17;;;;;;;;;;;-6.00;99.90;;;-7.25;100.00;98748.66;5057629;28;1914;-68
2024/01/09 09:28:47;;;;;;;;;;;-5.90;99.90;;;-7.17;100.00;98748.22;5043011;28;2004;-68
2024/01/09 09:31:32;;;;;;;;;;;-5.80;99.90;;;-7.10;100.00;98749.34;5061259;28;1114;-68
2024/01/09 09:34:02;;;;;;;;;;;-5.70;99.90;;;-7.03;100.00;98747.97;5057807;28;1335;-68
2024/01/09 09:36:29;;;;;;;;;;;-5.70;99.90;;;-6.97;100.00;98741.56;5063974;28;1005;-66
2024/01/09 09:38:56;;;;;;;;;;;-5.50;99.90;;;-6.78;100.00;98742.38;5059235;28;1153;-69
2024/01/09 09:41:23;;;;;;;;;;;-5.50;99.90;;;-6.80;100.00;98742.28;5041665;28;997;-68
2024/01/09 09:43:57;;;;;;;;;;;-5.40;99.90;;;-6.74;100.00;98734.16;5062329;28;3046;-68
2024/01/09 09:46:31;;;;;;;;;;;;;;;-6.64;100.00;98738.78;5027082;28;1906;-68
2024/01/09 09:48:59;;;;;;;;;;;-5.30;99.90;;;-6.67;100.00;98727.72;5060947;28;1226;-68
2024/01/09 09:51:26;;;;;;;;;;;-5.30;99.90;;;-6.54;100.00;98733.34;5062875;28;1320;-68
2024/01/09 09:53:54;;;;;;;;;;;-5.10;99.90;;;-6.40;100.00;98723.84;5063317;28;1383;-67
2024/01/09 09:56:21;;;;;;;;;;;-5.00;99.90;;;-6.36;100.00;98713.06;5058636;28;1092;-66
2024/01/09 09:58:49;;;;;;;;;;;-5.00;99.90;;;-6.30;100.00;98714.97;5060304;28;2627;-66
2024/01/09 10:01:17;;;;;;;;;;;-5.00;99.90;;;-6.16;100.00;98705.44;5060894;28;2812;-67
2024/01/09 10:04:12;;;;;;;;;;;-4.80;99.90;;;-6.00;100.00;98704.41;5044177;28;1430;-68
2024/01/09 10:06:41;;;;;;;;;;;-4.70;99.90;;;-5.92;100.00;98701.38;5060148;28;1902;-68
2024/01/09 10:09:10;;;;;;;;;;;-4.50;99.90;;;-5.93;100.00;98698.75;5063349;28;1239;-68
2024/01/09 10:11:37;;;;;;;;;;;-4.50;99.90;;;-5.79;100.00;98696.78;5061882;28;1126;-68
2024/01/09 10:14:04;;;;;;;;;;;-4.40;99.90;;;-5.97;100.00;98687.72;5059321;28;2043;-67
2024/01/09 10:16:48;;;;;;;;;;;-4.50;99.90;;;-5.95;100.00;98692.84;5063092;28;2653;-68
2024/01/09 10:19:15;;;;;;;;;;;-4.50;99.90;;;-6.02;100.00;98680.72;5063051;28;1513;-68
2024/01/09 10:21:43;;;;;;;;;;;-4.40;99.90;;;-5.93;100.00;98678.53;5040940;28;1220;-68
2024/01/09 10:24:10;;;;;;;;;;;-4.40;99.90;;;-5.84;100.00;98683.09;5057823;28;1304;-68
2024/01/09 10:26:37;;;;;;;;;;;-4.40;99.90;;;-5.78;100.00;98680.84;5056997;28;2001;-67
2024/01/09 10:29:13;;;;;;;;;;;-4.40;99.90;;;-5.68;100.00;98677.84;5059645;28;3110;-67
2024/01/09 10:31:44;;;;;;;;;;;-4.40;99.90;;;-5.63;100.00;98675.50;5063391;28;1182;-68
2024/01/09 10:34:11;;;;;;;;;;;-4.30;99.90;;;-5.65;100.00;98667.88;5043612;28;1568;-68
2024/01/09 10:36:38;;;;;;;;;;;-4.40;99.90;;;-5.70;100.00;98659.25;5059381;28;1262;-67
2024/01/09 10:39:06;;;;;;;;;;;-4.30;99.90;;;-5.60;100.00;98658.78;5045882;28;1033;-68
2024/01/09 10:41:33;;;;;;;;;;;-4.20;99.90;;;-5.48;100.00;98654.19;5023279;28;1419;-66
2024/01/09 10:44:01;;;;;;;;;;;-4.10;99.90;;;-5.53;100.00;98657.34;5058332;28;2658;-68
2024/01/09 10:46:29;;;;;;;;;;;-4.00;99.90;;;-5.48;100.00;98650.78;5041445;28;2009;-67
2024/01/09 10:48:57;;;;;;;;;;;-4.10;99.90;;;-5.40;100.00;98646.03;5058488;28;1476;-68
2024/01/09 10:51:24;;;;;;;;;;;-4.00;99.90;;;-5.27;100.00;98638.97;5053426;28;1352;-67
2024/01/09 10:53:52;;;;;;;;;;;-4.00;99.90;;;-5.37;100.00;98639.41;5049469;28;1434;-68
2024/01/09 10:56:21;;;;;;;;;;;-4.00;99.90;;;-5.17;100.00;98642.69;5064453;28;2039;-69
2024/01/09 10:58:49;;;;;;;;;;;-4.00;99.90;;;-5.17;100.00;98629.19;5060270;28;1114;-68
2024/01/09 11:01:16;;;;;;;;;;;-3.90;99.90;;;-5.06;100.00;98627.91;5057673;28;1264;-66
2024/01/09 11:03:43;;;;;;;;;;;-3.70;99.90;;;-5.02;100.00;98632.22;5060762;28;1386;-68
2024/01/09 11:06:15;;;;;;;;;;;-3.70;99.90;;;-5.02;100.00;98623.78;5057970;28;1018;-66
2024/01/09 11:08:45;;;;;;;;;;;-3.70;99.90;;;-5.09;100.00;98625.22;5056367;28;1910;-68
2024/01/09 11:11:13;;;;;;;;;;;-3.60;99.90;;;-4.89;100.00;98614.13;5060030;28;3075;-68
2024/01/09 11:13:46;;;;;;;;;;;-3.60;99.90;;;-4.90;100.00;98612.44;5039909;28;1359;-69
2024/01/09 11:16:15;;;;;;;;;;;-3.50;99.90;;;-4.80;100.00;98607.69;5037839;28;1166;-67
2024/01/09 11:18:43;;;;;;;;;;;-3.40;99.90;;;-4.86;100.00;98599.06;5047556;28;1072;-67